Terminal Aerodrome Forecast
Issued by NWS Northern Indiana

Home | Current Version | Previous Version | Text Only | Print | Product List | Glossary On
Versions: 1 2 3 4 5 6 7 8 9 10 11 12 13 14 15 16
000
FTUS43 KIWX 161131
TAFFWA
TAF
KFWA 161131Z 1612/1712 22013KT P6SM OVC100
     FM162000 19006KT P6SM FEW250
     FM171000 17004KT 4SM BR FEW250=

USA.gov is the U.S. government's official web portal to all federal, state and local government web resources and services.